Time;durP1;ratioP1;P1;durP2;ratioP2;P2;SDS_P1;SDS_P2;PMS_P1;PMS_P2;Temp;Humidity;BMP_temperature;BMP_pressure;BME280_temperature;BME280_humidity;BME280_pressure;Samples;Min_cycle;Max_cycle;Signal;HPM_P1;HPM_P2
2023/04/23 00:00:23;;;;;;;;;14.50;9.00;;;;;20.27;48.59;100339.75;5036413;28;45360;-44
2023/04/23 00:02:52;;;;;;;;;12.00;10.50;;;;;20.26;47.98;100343.34;5037198;28;45389;-42
2023/04/23 00:05:18;;;;;;;;;13.75;11.00;;;;;20.27;48.66;100335.34;5037580;28;46525;-45
2023/04/23 00:07:44;;;;;;;;;12.25;11.75;;;;;20.26;47.98;100333.63;5037277;28;45586;-44
2023/04/23 00:10:09;;;;;;;;;11.00;9.25;;;;;20.26;48.31;100336.28;5037193;28;45429;-43
2023/04/23 00:12:35;;;;;;;;;13.25;11.50;;;;;20.24;48.32;100331.13;5037876;28;45649;-44
2023/04/23 00:15:01;;;;;;;;;9.50;8.25;;;;;20.25;48.12;100342.47;5036977;28;46144;-42
2023/04/23 00:17:27;;;;;;;;;13.00;9.00;;;;;20.25;48.57;100347.72;5036241;28;45710;-45
2023/04/23 00:19:52;;;;;;;;;8.50;7.00;;;;;20.24;48.40;100351.31;5037950;28;45404;-44
2023/04/23 00:22:19;;;;;;;;;8.00;6.67;;;;;20.23;48.65;100349.59;5025627;28;55917;-45
2023/04/23 00:24:44;;;;;;;;;12.50;9.25;;;;;20.23;48.40;100349.59;5024728;28;46440;-48
2023/04/23 00:27:10;;;;;;;;;7.50;7.00;;;;;20.23;48.62;100346.97;5037623;28;45229;-44
2023/04/23 00:29:35;;;;;;;;;7.00;7.00;;;;;20.23;48.20;100349.59;5037536;28;45297;-44
2023/04/23 00:32:02;;;;;;;;;11.00;7.33;;;;;20.22;48.23;100346.16;5036337;28;53058;-44
2023/04/23 00:34:27;;;;;;;;;8.75;7.25;;;;;20.23;48.42;100344.34;5042904;28;46450;-44
2023/04/23 00:36:53;;;;;;;;;9.00;7.00;;;;;20.22;48.67;100338.25;5053005;28;44644;-44
2023/04/23 00:39:18;;;;;;;;;9.00;7.25;;;;;20.21;48.42;100341.00;5040839;28;45228;-43
2023/04/23 00:41:43;;;;;;;;;11.75;8.25;;;;;20.21;48.70;100344.44;5039539;28;45374;-42
2023/04/23 00:44:09;;;;;;;;;11.50;7.00;;;;;20.20;48.23;100345.38;5042847;28;46468;-42
2023/04/23 00:46:35;;;;;;;;;9.75;8.50;;;;;20.21;48.72;100343.63;5043926;28;45269;-43
2023/04/23 00:49:01;;;;;;;;;6.00;4.25;;;;;20.21;48.22;100341.00;5043377;28;45404;-42
2023/04/23 00:51:27;;;;;;;;;8.50;7.25;;;;;20.20;48.84;100339.28;5047265;28;45316;-42
2023/04/23 00:53:53;;;;;;;;;7.00;7.00;;;;;20.19;48.61;100340.22;5048271;28;46288;-42
2023/04/23 00:56:19;;;;;;;;;7.25;6.25;;;;;20.19;48.24;100332.34;5046880;28;45311;-45
2023/04/23 00:58:44;;;;;;;;;8.00;5.00;;;;;20.19;48.32;100327.06;5047839;28;45335;-45
2023/04/23 01:01:11;;;;;;;;;7.00;4.00;;;;;20.18;48.30;100330.66;5040056;28;45368;-45
2023/04/23 01:03:38;;;;;;;;;6.50;5.25;;;;;20.18;48.46;100325.38;5038427;28;46969;-47
2023/04/23 01:06:04;;;;;;;;;7.00;6.00;;;;;20.18;48.61;100328.00;5038949;28;45222;-46
2023/04/23 01:08:31;;;;;;;;;8.25;6.50;;;;;20.17;48.50;100318.44;5037981;28;45548;-47
2023/04/23 01:10:57;;;;;;;;;10.00;5.00;;;;;20.15;48.38;100309.78;5039867;28;45330;-43
2023/04/23 01:13:28;;;;;;;;;8.50;6.75;;;;;20.14;48.23;100319.47;5039463;28;46340;-43
2023/04/23 01:15:54;;;;;;;;;7.00;6.25;;;;;20.16;48.43;100316.72;5039018;28;45814;-44
2023/04/23 01:18:20;;;;;;;;;7.50;5.50;;;;;20.17;48.40;100313.16;5039268;28;45429;-46
2023/04/23 01:20:45;;;;;;;;;7.75;6.00;;;;;20.17;48.18;100307.91;5038881;28;45781;-46
2023/04/23 01:23:11;;;;;;;;;6.75;5.25;;;;;20.16;48.59;100309.69;5038902;28;47166;-47
2023/04/23 01:25:37;;;;;;;;;5.00;5.00;;;;;20.15;48.28;100307.16;5038655;28;45299;-45
2023/04/23 01:28:05;;;;;;;;;7.25;5.00;;;;;20.15;48.20;100299.25;5041133;28;45359;-46
2023/04/23 01:30:32;;;;;;;;;9.00;5.00;;;;;20.15;48.59;100309.78;5039217;28;45597;-43
2023/04/23 01:32:58;;;;;;;;;6.50;5.75;;;;;20.14;48.80;100306.31;5039061;28;47040;-45
2023/04/23 01:35:24;;;;;;;;;6.50;5.25;;;;;20.14;48.50;100303.69;5038813;28;45738;-44
2023/04/23 01:37:51;;;;;;;;;5.25;5.00;;;;;20.14;48.48;100301.06;5038797;28;45374;-46
2023/04/23 01:40:17;;;;;;;;;5.25;4.25;;;;;20.12;48.37;100300.28;5039690;28;45442;-46
2023/04/23 01:42:42;;;;;;;;;7.75;5.00;;;;;20.13;48.67;100307.25;5060700;28;46221;-44
2023/04/23 01:45:08;;;;;;;;;6.50;5.25;;;;;20.13;48.55;100299.34;5049675;28;45413;-46
2023/04/23 01:47:34;;;;;;;;;5.50;4.00;;;;;20.13;48.64;100291.47;5038999;28;45378;-46
2023/04/23 01:49:59;;;;;;;;;4.00;4.00;;;;;20.12;48.61;100288.94;5038433;28;45683;-45
2023/04/23 01:52:25;;;;;;;;;6.75;4.50;;;;;20.12;48.27;100288.94;5039884;28;45497;-45
2023/04/23 01:54:51;;;;;;;;;5.75;4.75;;;;;20.12;48.08;100283.69;5061133;28;45228;-43
2023/04/23 01:57:22;;;;;;;;;4.00;4.00;;;;;20.13;48.14;100285.34;5060998;28;44776;-45
2023/04/23 01:59:51;;;;;;;;;6.50;4.00;;;;;20.11;48.43;100274.94;5050448;28;45243;-49
2023/04/23 02:02:16;;;;;;;;;5.00;4.25;;;;;20.11;48.18;100277.56;5037923;28;46515;-45
2023/04/23 02:04:44;;;;;;;;;8.00;6.00;;;;;20.11;48.22;100271.47;5038765;28;45235;-48
2023/04/23 02:07:09;;;;;;;;;8.25;6.25;;;;;20.11;48.51;100271.47;5038548;28;45402;-43
2023/04/23 02:09:35;;;;;;;;;3.75;3.75;;;;;20.08;48.59;100272.47;5038603;28;45378;-42
2023/04/23 02:12:00;;;;;;;;;4.50;3.75;;;;;20.10;48.18;100275.03;5038348;28;45370;-42
2023/04/23 02:14:26;;;;;;;;;7.00;5.50;;;;;20.10;48.81;100285.56;5039318;28;45432;-46
2023/04/23 02:16:51;;;;;;;;;4.75;4.00;;;;;20.09;48.38;100274.16;5044337;28;45378;-44
2023/04/23 02:19:17;;;;;;;;;5.00;4.00;;;;;20.08;48.27;100273.34;5046435;28;45524;-42
2023/04/23 02:21:42;;;;;;;;;5.00;4.00;;;;;20.08;48.53;100278.59;5040935;28;46290;-45
2023/04/23 02:24:08;;;;;;;;;3.00;3.00;;;;;20.08;48.72;100280.38;5037758;28;45298;-45
2023/04/23 02:26:33;;;;;;;;;4.00;2.00;;;;;20.08;48.54;100272.47;5037812;28;45580;-45
2023/04/23 02:28:58;;;;;;;;;3.75;3.75;;;;;20.06;47.99;100275.22;5038278;28;45612;-45
2023/04/23 02:31:24;;;;;;;;;4.00;4.00;;;;;20.07;48.46;100273.41;5037834;28;46727;-44
2023/04/23 02:33:50;;;;;;;;;5.50;3.50;;;;;20.08;48.04;100280.38;5037427;28;45433;-44
2023/04/23 02:36:15;;;;;;;;;4.00;4.00;;;;;20.07;48.21;100281.31;5038166;28;45248;-46
2023/04/23 02:38:43;;;;;;;;;6.25;5.00;;;;;20.07;48.55;100270.78;5037569;28;45569;-45
2023/04/23 02:41:09;;;;;;;;;3.50;3.50;;;;;20.06;48.39;100271.75;5037856;28;45185;-45
2023/04/23 02:43:34;;;;;;;;;5.00;3.00;;;;;20.06;48.27;100271.75;5051570;28;45269;-43
2023/04/23 02:46:06;;;;;;;;;3.50;2.25;;;;;20.06;48.06;100269.13;5050554;28;45157;-44
2023/04/23 02:48:32;;;;;;;;;3.25;2.00;;;;;20.06;48.20;100264.69;5038570;28;45366;-42
2023/04/23 02:50:58;;;;;;;;;4.00;4.00;;;;;20.05;48.38;100263.00;5036444;28;46249;-44
2023/04/23 02:53:23;;;;;;;;;3.00;3.00;;;;;20.05;48.49;100260.38;5037755;28;45302;-44
2023/04/23 02:55:48;;;;;;;;;2.00;2.00;;;;;20.05;48.15;100252.47;5037511;28;45760;-43
2023/04/23 02:58:14;;;;;;;;;3.00;3.00;;;;;20.04;48.42;100256.03;5037525;28;60684;-44
2023/04/23 03:00:39;;;;;;;;;4.33;3.00;;;;;20.04;48.54;100263.94;5046643;28;53908;-44
2023/04/23 03:03:05;;;;;;;;;2.00;2.00;;;;;20.02;48.24;100263.19;5049293;28;45366;-46
2023/04/23 03:05:30;;;;;;;;;3.25;3.25;;;;;20.01;48.50;100253.59;5047168;28;45379;-47
2023/04/23 03:07:55;;;;;;;;;3.00;3.00;;;;;20.02;48.34;100255.28;5045501;28;45313;-43
2023/04/23 03:10:21;;;;;;;;;3.50;3.25;;;;;20.02;48.38;100257.91;5045039;28;51541;-44
2023/04/23 03:12:46;;;;;;;;;2.00;2.00;;;;;20.02;48.33;100247.41;5045212;28;45327;-43
2023/04/23 03:15:11;;;;;;;;;3.50;1.50;;;;;20.03;48.25;100250.88;5045352;28;45338;-43
2023/04/23 03:17:37;;;;;;;;;5.00;2.00;;;;;19.98;47.98;100243.28;5042738;28;45632;-46
2023/04/23 03:20:03;;;;;;;;;2.50;2.50;;;;;20.01;48.48;100239.63;5037419;28;45641;-43
2023/04/23 03:22:28;;;;;;;;;1.50;1.50;;;;;20.00;47.97;100230.03;5037131;28;45779;-42
2023/04/23 03:24:53;;;;;;;;;2.67;1.00;;;;;20.00;48.11;100230.91;5036443;28;63370;-46
2023/04/23 03:27:19;;;;;;;;;2.00;2.00;;;;;20.00;47.99;100223.00;5036982;28;45311;-44
2023/04/23 03:29:45;;;;;;;;;2.75;2.00;;;;;19.99;47.77;100221.31;5036667;28;46876;-46
2023/04/23 03:32:10;;;;;;;;;2.25;2.00;;;;;19.99;47.94;100228.34;5036861;28;45889;-42
2023/04/23 03:34:35;;;;;;;;;3.00;2.00;;;;;19.98;47.91;100232.78;5036689;28;54702;-43
2023/04/23 03:37:01;;;;;;;;;5.00;3.00;;;;;19.98;48.04;100227.50;5036470;28;45157;-41
2023/04/23 03:39:26;;;;;;;;;5.00;2.00;;;;;19.98;47.84;100224.00;5036328;28;48628;-43
2023/04/23 03:41:51;;;;;;;;;2.00;2.00;;;;;19.98;47.76;100222.25;5036203;28;63869;-41
2023/04/23 03:44:16;;;;;;;;;2.33;2.33;;;;;19.96;48.06;100218.88;5036469;28;53724;-42
2023/04/23 03:46:42;;;;;;;;;4.67;3.00;;;;;19.97;47.97;100232.84;5036312;28;49675;-42
2023/04/23 03:49:07;;;;;;;;;3.25;2.25;;;;;19.97;48.13;100222.31;5036180;28;46576;-42
2023/04/23 03:51:32;;;;;;;;;7.50;2.75;;;;;19.93;48.32;100227.78;5036973;28;45221;-44
2023/04/23 03:53:57;;;;;;;;;2.00;1.00;;;;;19.96;48.38;100228.53;5036229;28;58554;-43
2023/04/23 03:56:23;;;;;;;;;2.00;2.00;;;;;19.95;47.75;100225.06;5035375;28;50389;-43
2023/04/23 03:58:48;;;;;;;;;3.50;3.00;;;;;19.96;47.72;100216.22;5036379;28;46187;-44
2023/04/23 04:01:13;;;;;;;;;2.00;2.00;;;;;19.96;47.72;100215.38;5036274;28;49862;-43
2023/04/23 04:03:39;;;;;;;;;2.00;2.00;;;;;19.94;47.65;100210.22;5036336;28;45437;-43
2023/04/23 04:06:04;;;;;;;;;3.50;2.00;;;;;19.93;47.71;100224.31;5036623;28;45629;-42
2023/04/23 04:08:29;;;;;;;;;1.00;1.00;;;;;19.93;48.02;100224.31;5036217;28;46331;-44
2023/04/23 04:10:55;;;;;;;;;2.33;1.33;;;;;19.93;47.97;100216.41;5036081;28;54300;-42
2023/04/23 04:13:20;;;;;;;;;3.25;2.00;;;;;19.90;48.16;100204.31;5036584;28;45350;-42
2023/04/23 04:15:46;;;;;;;;;3.00;3.00;;;;;19.92;47.94;100201.56;5036161;28;45268;-46
2023/04/23 04:18:11;;;;;;;;;2.00;1.75;;;;;19.92;48.12;100206.84;5036304;28;46096;-46
2023/04/23 04:20:37;;;;;;;;;3.00;2.00;;;;;19.91;47.71;100194.63;5047774;28;52930;-47
2023/04/23 04:23:02;;;;;;;;;2.25;1.00;;;;;19.91;48.14;100198.13;5047735;28;45382;-43
2023/04/23 04:25:28;;;;;;;;;4.00;2.50;;;;;19.90;47.52;100206.94;5035621;28;45487;-44
2023/04/23 04:27:53;;;;;;;;;5.50;2.00;;;;;19.91;47.76;100192.00;5035873;28;47384;-44
2023/04/23 04:30:20;;;;;;;;;2.00;2.00;;;;;19.90;47.62;100190.31;5036536;28;63118;-44
2023/04/23 04:32:46;;;;;;;;;3.25;3.00;;;;;19.91;47.82;100194.63;5044407;28;45279;-42
2023/04/23 04:35:13;;;;;;;;;2.00;2.00;;;;;19.90;47.63;100196.41;5043386;28;45281;-44
2023/04/23 04:37:38;;;;;;;;;4.00;2.75;;;;;19.87;47.79;100190.50;5036413;28;46450;-43
2023/04/23 04:40:07;;;;;;;;;2.00;2.00;;;;;19.89;48.10;100193.91;5036839;28;45303;-42
2023/04/23 04:42:33;;;;;;;;;4.00;1.00;;;;;19.88;47.55;100193.03;5036195;28;45349;-42
2023/04/23 04:44:58;;;;;;;;;1.00;1.00;;;;;19.88;47.62;100198.31;5036322;28;45287;-42
2023/04/23 04:47:24;;;;;;;;;1.00;1.00;;;;;19.88;47.67;100186.94;5035501;28;70929;-43
2023/04/23 04:49:49;;;;;;;;;2.00;2.00;;;;;19.88;47.61;100179.06;5036828;28;45311;-44
2023/04/23 04:52:15;;;;;;;;;2.00;1.00;;;;;19.89;47.41;100178.94;5036971;28;45294;-42
2023/04/23 04:54:41;;;;;;;;;1.50;1.50;;;;;19.89;47.36;100172.84;5037469;28;45287;-45
2023/04/23 04:57:06;;;;;;;;;1.75;1.75;;;;;19.92;47.62;100167.38;5038216;28;45323;-42
2023/04/23 04:59:31;;;;;;;;;2.00;2.00;;;;;19.94;47.60;100165.50;5044360;28;45212;-43
2023/04/23 05:01:57;;;;;;;;;1.50;1.00;;;;;20.00;47.34;100162.50;5047644;28;53058;-45
2023/04/23 05:04:22;;;;;;;;;2.00;2.00;;;;;20.05;47.39;100157.78;5054968;28;45307;-46
2023/04/23 05:06:47;;;;;;;;;2.00;2.00;;;;;20.11;47.43;100163.59;5045828;28;67136;-44
2023/04/23 05:09:13;;;;;;;;;4.00;2.00;;;;;20.18;46.70;100162.25;5052267;28;58879;-46
2023/04/23 05:11:39;;;;;;;;;3.00;2.00;;;;;20.26;46.98;100167.84;5057775;28;64099;-44
2023/04/23 05:14:05;;;;;;;;;4.25;2.00;;;;;20.34;46.43;100172.63;5056549;28;45323;-47
2023/04/23 05:16:30;;;;;;;;;5.00;2.75;;;;;20.42;46.52;100166.88;5061929;28;55527;-47
2023/04/23 05:18:55;;;;;;;;;3.00;1.25;;;;;20.50;46.40;100167.19;5055055;28;45418;-45
2023/04/23 05:21:21;;;;;;;;;2.50;2.50;;;;;20.57;46.03;100173.75;5052412;28;45392;-50
2023/04/23 05:23:47;;;;;;;;;1.25;1.25;;;;;20.63;46.06;100167.22;5043919;28;45273;-47
2023/04/23 05:26:12;;;;;;;;;3.00;3.00;;;;;20.69;46.05;100167.66;5049598;28;45390;-46
2023/04/23 05:28:37;;;;;;;;;3.00;3.00;;;;;20.75;45.66;100166.44;5056605;28;44819;-44
2023/04/23 05:31:03;;;;;;;;;1.00;1.00;;;;;20.80;46.11;100174.88;5047204;28;59990;-43
2023/04/23 05:33:28;;;;;;;;;3.25;2.00;;;;;20.85;45.67;100177.22;5040159;28;45283;-44
2023/04/23 05:35:54;;;;;;;;;2.50;2.00;;;;;20.88;46.16;100170.88;5026145;28;47150;-44
2023/04/23 05:38:19;;;;;;;;;5.00;2.00;;;;;20.92;45.62;100164.47;5045037;28;45407;-50
2023/04/23 05:40:45;;;;;;;;;6.25;3.50;;;;;20.94;45.67;100155.50;5055251;28;45239;-43
2023/04/23 05:43:11;;;;;;;;;6.00;3.00;;;;;20.97;45.39;100160.59;5048862;28;45360;-50
2023/04/23 05:45:36;;;;;;;;;2.50;2.00;;;;;20.98;46.16;100146.47;5039132;28;47478;-51
2023/04/23 05:48:01;;;;;;;;;6.00;3.00;;;;;20.99;45.41;100148.16;5038141;28;66079;-46
2023/04/23 05:50:27;;;;;;;;;5.00;2.00;;;;;20.98;45.69;100146.47;5041739;28;45330;-47
2023/04/23 05:52:52;;;;;;;;;3.00;3.00;;;;;21.01;45.66;100134.88;5038779;28;45474;-48
2023/04/23 05:55:19;;;;;;;;;3.75;3.00;;;;;21.03;45.82;100137.38;5038709;28;47260;-45
2023/04/23 05:57:45;;;;;;;;;2.75;2.00;;;;;21.05;45.57;100146.91;5039857;28;45408;-44
2023/04/23 06:00:10;;;;;;;;;4.00;3.00;;;;;21.06;45.69;100145.09;5039395;28;45394;-45
2023/04/23 06:02:37;;;;;;;;;4.00;3.00;;;;;21.06;45.89;100145.09;5039612;28;45501;-47
2023/04/23 06:05:03;;;;;;;;;4.00;2.75;;;;;21.08;45.90;100151.94;5038705;28;46365;-44
2023/04/23 06:07:28;;;;;;;;;3.75;2.75;;;;;21.08;45.63;100141.38;5018896;28;45405;-42
2023/04/23 06:09:53;;;;;;;;;4.00;3.00;;;;;21.10;46.42;100149.22;5020640;28;45439;-44
2023/04/23 06:12:18;;;;;;;;;3.00;3.00;;;;;21.13;46.46;100146.34;5021106;28;45361;-46
2023/04/23 06:14:44;;;;;;;;;4.50;2.00;;;;;21.13;46.98;100147.19;5018533;28;45447;-46
2023/04/23 06:17:09;;;;;;;;;4.75;2.50;;;;;21.14;46.69;100145.41;5034889;28;45457;-43
2023/04/23 06:19:34;;;;;;;;;9.00;2.00;;;;;21.13;47.03;100139.28;5037373;28;45901;-45
2023/04/23 06:22:00;;;;;;;;;2.50;1.00;;;;;21.14;47.04;100150.66;5037883;28;53917;-47
2023/04/23 06:24:25;;;;;;;;;2.75;2.75;;;;;21.13;46.93;100154.25;5038251;28;45594;-48
2023/04/23 06:26:50;;;;;;;;;4.25;3.75;;;;;21.12;47.39;100142.03;5038293;28;45430;-46
2023/04/23 06:29:16;;;;;;;;;5.25;2.25;;;;;21.14;47.79;100145.41;5038247;28;45474;-45
2023/04/23 06:31:41;;;;;;;;;6.00;4.75;;;;;21.14;47.67;100140.13;5037387;28;45506;-49
2023/04/23 06:34:07;;;;;;;;;11.00;8.00;;;;;21.15;47.60;100147.09;5037957;28;46014;-47
2023/04/23 06:36:32;;;;;;;;;19.50;19.50;;;;;21.16;48.17;100138.22;5038134;28;45485;-46
2023/04/23 06:38:58;;;;;;;;;25.25;25.25;;;;;21.16;48.16;100127.69;5038674;28;45251;-47
2023/04/23 06:41:23;;;;;;;;;38.00;32.75;;;;;21.15;47.71;100131.28;5045196;28;45201;-48
2023/04/23 06:43:48;;;;;;;;;36.25;32.25;;;;;21.16;48.17;100127.69;5042778;28;46397;-46
2023/04/23 06:46:14;;;;;;;;;37.67;33.33;;;;;21.15;48.66;100121.59;5048332;28;57079;-46
2023/04/23 06:48:39;;;;;;;;;36.75;31.25;;;;;21.16;48.19;100125.91;5043944;28;45359;-43
2023/04/23 06:51:05;;;;;;;;;38.67;33.00;;;;;21.16;48.45;100127.69;5037133;28;49253;-43
2023/04/23 06:53:30;;;;;;;;;38.50;30.00;;;;;21.17;48.76;100126.75;5048992;28;47314;-50
2023/04/23 06:55:56;;;;;;;;;32.50;27.75;;;;;21.16;47.96;100122.44;5052981;28;45412;-52
2023/04/23 06:58:26;;;;;;;;;30.25;27.50;;;;;21.15;48.59;100115.47;5046872;28;45385;-46
2023/04/23 07:00:52;;;;;;;;;28.75;25.75;;;;;21.17;48.46;100124.94;5048046;28;45205;-50
2023/04/23 07:03:18;;;;;;;;;26.25;23.00;;;;;21.17;48.44;100124.94;5045643;28;46670;-43
2023/04/23 07:05:43;;;;;;;;;22.25;20.25;;;;;21.17;48.49;100118.84;5041271;28;45257;-52
2023/04/23 07:08:09;;;;;;;;;26.50;25.75;;;;;21.16;48.60;100125.91;5039472;28;45328;-45
2023/04/23 07:10:34;;;;;;;;;24.50;22.75;;;;;21.16;48.51;100107.47;5039131;28;45477;-46
2023/04/23 07:13:00;;;;;;;;;23.25;21.50;;;;;21.17;48.76;100105.66;5037521;28;45943;-42
2023/04/23 07:15:25;;;;;;;;;24.50;20.75;;;;;21.14;49.01;100108.50;5036604;28;45316;-48
2023/04/23 07:17:51;;;;;;;;;25.25;22.50;;;;;21.14;48.91;100105.88;5037083;28;45411;-47
2023/04/23 07:20:16;;;;;;;;;19.33;19.00;;;;;21.13;48.54;100102.41;5037178;28;49655;-50
2023/04/23 07:22:41;;;;;;;;;23.75;19.25;;;;;21.15;48.59;100102.28;5036473;28;46115;-45
2023/04/23 07:25:07;;;;;;;;;20.25;17.00;;;;;21.15;48.43;100097.88;5036723;28;49946;-44
2023/04/23 07:27:33;;;;;;;;;23.50;17.25;;;;;21.15;48.64;100099.66;5037168;28;45444;-44
2023/04/23 07:29:58;;;;;;;;;16.75;16.75;;;;;21.16;48.11;100090.81;5037463;28;45359;-44
2023/04/23 07:32:26;;;;;;;;;20.00;17.50;;;;;21.14;48.22;100092.69;5036807;28;46886;-51
2023/04/23 07:34:53;;;;;;;;;19.25;18.00;;;;;21.15;48.37;100089.13;5035942;28;45812;-51
2023/04/23 07:37:18;;;;;;;;;22.25;17.75;;;;;21.14;48.44;100087.44;5036972;28;45377;-54
2023/04/23 07:39:43;;;;;;;;;17.33;15.33;;;;;21.11;48.28;100072.69;5036041;28;49583;-53
2023/04/23 07:42:08;;;;;;;;;13.67;13.00;;;;;21.12;48.50;100078.78;5036075;28;67065;-51
2023/04/23 07:44:34;;;;;;;;;16.67;12.67;;;;;21.09;48.36;100082.47;5036157;28;49219;-51
2023/04/23 07:46:59;;;;;;;;;15.50;14.75;;;;;21.09;48.36;100079.03;5036705;28;45509;-44
2023/04/23 07:49:24;;;;;;;;;17.50;13.00;;;;;21.08;48.27;100070.25;5038667;28;45470;-52
2023/04/23 07:51:50;;;;;;;;;16.50;12.75;;;;;21.10;48.27;100085.97;5040262;28;46083;-54
2023/04/23 07:54:15;;;;;;;;;15.00;12.50;;;;;21.07;48.29;100087.00;5043206;28;45441;-53
2023/04/23 07:56:40;;;;;;;;;14.25;12.50;;;;;21.07;48.30;100086.19;5053003;28;45341;-51
2023/04/23 07:59:06;;;;;;;;;13.00;11.67;;;;;21.06;48.26;100089.75;5045689;28;50502;-49
2023/04/23 08:01:32;;;;;;;;;12.50;11.00;;;;;21.06;48.29;100073.94;5043251;28;46617;-51
2023/04/23 08:03:59;;;;;;;;;13.50;11.25;;;;;21.06;48.45;100055.50;5044510;28;45838;-52
2023/04/23 08:06:25;;;;;;;;;9.50;9.50;;;;;21.03;48.21;100047.81;5034485;28;45241;-50
2023/04/23 08:08:51;;;;;;;;;11.75;10.75;;;;;21.02;47.92;100039.09;5021665;28;45205;-53
2023/04/23 08:11:17;;;;;;;;;11.75;8.50;;;;;21.01;48.04;100030.31;5035734;28;47107;-54
2023/04/23 08:13:42;;;;;;;;;16.25;10.00;;;;;21.00;48.28;100031.25;5036623;28;45730;-53
2023/04/23 08:16:08;;;;;;;;;11.50;9.00;;;;;21.01;48.11;100026.84;5036287;28;45156;-54
2023/04/23 08:18:34;;;;;;;;;10.00;10.00;;;;;20.99;47.99;100019.06;5037113;28;45296;-53
2023/04/23 08:21:00;;;;;;;;;9.75;9.25;;;;;21.00;47.51;100010.19;5056439;28;48111;-44
2023/04/23 08:23:25;;;;;;;;;10.00;9.50;;;;;21.00;47.83;99999.66;5040967;28;45475;-52
2023/04/23 08:25:51;;;;;;;;;11.00;10.25;;;;;20.91;47.76;99973.13;5036537;28;45346;-58
2023/04/23 08:28:17;;;;;;;;;16.00;10.50;;;;;21.00;47.32;99981.22;5035988;28;45576;-60
2023/04/23 08:30:43;;;;;;;;;11.50;9.00;;;;;20.91;48.45;99952.91;5035816;28;46609;-54
2023/04/23 08:33:08;;;;;;;;;19.50;13.25;;;;;21.13;48.01;99965.38;5036123;28;45307;-41
2023/04/23 19:56:21;;;;;;;;;3.00;1.00;;;;;20.84;47.86;100017.50;5006647;28;45792;-57
2023/04/23 19:58:49;;;;;;;;;1.00;1.00;;;;;20.85;48.03;100025.28;4968948;28;1257823;-59
2023/04/23 20:01:14;;;;;;;;;1.00;1.00;;;;;20.89;47.42;100019.81;5025929;28;45576;-58
2023/04/23 20:03:40;;;;;;;;;1.00;1.00;;;;;20.89;48.00;100025.91;5025537;28;45375;-59
2023/04/23 20:06:05;;;;;;;;;1.00;1.00;;;;;20.91;47.51;100024.00;5021819;28;45260;-60
2023/04/23 20:08:40;;;;;;;;;1.00;1.00;;;;;20.94;47.55;100029.06;5021392;28;45363;-60
2023/04/23 20:11:06;;;;;;;;;1.75;1.25;;;;;20.95;48.03;100030.75;5020442;28;45396;-59
2023/04/23 20:13:31;;;;;;;;;4.50;1.75;;;;;20.97;47.30;100030.66;5019717;28;46237;-58
2023/04/23 20:15:57;;;;;;;;;1.00;1.00;;;;;20.98;47.56;100030.56;5020688;28;45343;-61
2023/04/23 20:18:24;;;;;;;;;1.00;1.00;;;;;21.00;47.50;100027.81;5021358;28;45409;-62
2023/04/23 20:20:51;;;;;;;;;1.00;1.00;;;;;20.98;47.50;100027.91;5021029;28;45324;-61
2023/04/23 20:23:17;;;;;;;;;1.00;1.00;;;;;20.99;47.47;100031.38;5023418;28;47243;-60
2023/04/23 20:25:42;;;;;;;;;1.25;1.00;;;;;21.04;47.50;100038.97;5026673;28;45217;-58
2023/04/23 20:28:09;;;;;;;;;1.00;1.00;;;;;21.01;47.24;100038.22;5025635;28;45308;-60
2023/04/23 20:30:35;;;;;;;;;1.00;1.00;;;;;21.06;47.44;100047.59;5020286;28;45335;-60
2023/04/23 20:33:01;;;;;;;;;1.00;1.00;;;;;21.06;47.22;100055.50;4999296;28;47164;-59
2023/04/23 20:35:27;;;;;;;;;1.50;1.50;;;;;20.99;47.06;100045.41;5016418;28;45454;-57
2023/04/23 20:37:54;;;;;;;;;1.50;1.50;;;;;20.99;47.12;100063.84;5019995;28;45336;-60
2023/04/23 20:40:19;;;;;;;;;1.00;1.00;;;;;20.96;47.05;100068.47;5019801;28;45322;-58
2023/04/23 20:42:45;;;;;;;;;3.75;1.25;;;;;20.92;47.80;100078.38;5017857;28;55897;-59
2023/04/23 20:45:11;;;;;;;;;3.00;1.25;;;;;20.88;47.75;100082.19;5022307;28;45290;-58
2023/04/23 20:47:37;;;;;;;;;2.00;1.00;;;;;20.88;47.50;100089.22;5022698;28;45359;-57
2023/04/23 20:50:02;;;;;;;;;1.00;1.00;;;;;20.87;47.37;100088.41;5022514;28;45660;-58
2023/04/23 20:52:28;;;;;;;;;3.50;2.00;;;;;20.87;46.89;100090.19;5015213;28;46751;-59
2023/04/23 20:54:53;;;;;;;;;4.00;2.00;;;;;20.83;47.02;100095.69;5011278;28;58652;-59
2023/04/23 20:57:18;;;;;;;;;1.00;1.00;;;;;20.82;46.88;100096.63;5001894;28;45364;-59
2023/04/23 20:59:44;;;;;;;;;2.75;1.75;;;;;20.79;47.31;100099.47;5002484;28;45386;-60
2023/04/23 21:02:11;;;;;;;;;3.00;1.00;;;;;20.75;47.29;100089.25;5026278;28;55183;-59
2023/04/23 21:04:37;;;;;;;;;1.00;1.00;;;;;20.74;47.37;100100.69;5021203;28;45573;-59
2023/04/23 21:07:02;;;;;;;;;2.00;1.00;;;;;20.70;46.59;100100.88;5018458;28;45954;-58
2023/04/23 21:09:27;;;;;;;;;2.00;2.00;;;;;20.69;47.13;100096.56;5017863;28;45502;-60
2023/04/23 21:11:53;;;;;;;;;2.75;1.75;;;;;20.67;46.93;100101.09;5020231;28;52251;-57
2023/04/23 21:14:18;;;;;;;;;2.00;1.00;;;;;20.66;47.17;100102.06;5022048;28;47733;-59
2023/04/23 21:16:43;;;;;;;;;2.75;1.75;;;;;20.64;47.30;100108.34;5026145;28;45248;-57
2023/04/23 21:19:09;;;;;;;;;3.00;2.00;;;;;20.62;47.64;100107.59;5021268;28;48281;-60
2023/04/23 21:21:34;;;;;;;;;1.25;1.25;;;;;20.61;47.47;100109.41;5026370;28;46105;-58
2023/04/23 21:24:00;;;;;;;;;2.00;1.75;;;;;20.59;47.33;100113.94;5024522;28;45444;-59
2023/04/23 21:26:27;;;;;;;;;3.00;1.00;;;;;20.58;47.31;100104.34;5025199;28;45201;-60
2023/04/23 21:28:52;;;;;;;;;1.50;1.25;;;;;20.55;47.43;100096.69;5024105;28;45331;-59
2023/04/23 21:31:46;;;;;;;;;1.25;1.25;;;;;20.54;47.68;100101.09;5018944;28;45953;-58
2023/04/23 21:34:13;;;;;;;;;2.00;2.00;;;;;20.50;47.48;100096.13;5021876;28;45751;-57
2023/04/23 21:36:38;;;;;;;;;1.50;1.00;;;;;20.51;47.70;100117.06;5027694;28;45383;-59
2023/04/23 21:39:05;;;;;;;;;2.50;2.00;;;;;20.50;47.19;100109.28;5025265;28;45416;-58
2023/04/23 21:41:30;;;;;;;;;2.00;1.50;;;;;20.50;47.53;100117.19;5022861;28;45425;-58
2023/04/23 21:43:56;;;;;;;;;3.50;2.25;;;;;20.49;47.40;100110.22;5023342;28;45362;-59
2023/04/23 21:46:22;;;;;;;;;4.00;2.00;;;;;20.48;47.43;100112.03;5022334;28;45291;-59
2023/04/23 21:48:52;;;;;;;;;2.00;2.00;;;;;20.44;47.63;100112.34;5026490;28;45334;-58
2023/04/23 21:51:21;;;;;;;;;2.25;2.25;;;;;20.46;47.39;100119.19;5025527;28;46578;-59
2023/04/23 21:53:47;;;;;;;;;4.50;3.00;;;;;20.43;47.18;100115.91;5019545;28;45339;-59
2023/04/23 21:56:16;;;;;;;;;2.50;1.25;;;;;20.44;47.36;100121.06;5020728;28;45396;-57
2023/04/23 21:58:41;;;;;;;;;2.00;0.75;;;;;20.39;47.65;100120.53;5022026;28;45358;-58
2023/04/23 22:01:07;;;;;;;;;2.00;2.00;;;;;20.42;47.60;100127.38;5021989;28;46289;-58
2023/04/23 22:03:33;;;;;;;;;2.00;2.00;;;;;20.41;47.38;100131.78;5021951;28;45297;-59
2023/04/23 22:06:00;;;;;;;;;3.00;3.00;;;;;20.41;47.45;100144.94;5020064;28;45434;-60
2023/04/23 22:08:25;;;;;;;;;3.00;2.00;;;;;20.39;47.35;100149.50;5023782;28;45335;-59
2023/04/23 22:10:51;;;;;;;;;3.00;2.00;;;;;20.39;47.43;100147.69;5029813;28;45323;-57
2023/04/23 22:13:16;;;;;;;;;2.00;2.00;;;;;20.38;47.57;100153.06;5025956;28;45363;-57
2023/04/23 22:15:43;;;;;;;;;3.00;3.00;;;;;20.37;47.25;100146.94;5020052;28;45276;-57
2023/04/23 22:18:08;;;;;;;;;1.00;1.00;;;;;20.36;46.97;100150.53;5018810;28;45359;-59
2023/04/23 22:20:36;;;;;;;;;3.50;2.00;;;;;20.36;47.07;100150.53;5017985;28;45344;-59
2023/04/23 22:23:01;;;;;;;;;3.75;3.00;;;;;20.36;47.79;100157.59;5018471;28;45341;-58
2023/04/23 22:25:28;;;;;;;;;3.00;3.00;;;;;20.34;47.14;100149.78;5019860;28;45266;-58
2023/04/23 22:27:53;;;;;;;;;3.00;3.00;;;;;20.34;47.18;100160.28;5019610;28;45359;-59
2023/04/23 22:30:19;;;;;;;;;2.25;2.25;;;;;20.33;47.15;100165.66;5018130;28;46410;-57
2023/04/23 22:32:45;;;;;;;;;3.50;2.00;;;;;20.30;47.13;100160.59;5018247;28;45430;-59
2023/04/23 22:35:10;;;;;;;;;3.00;1.00;;;;;20.31;47.63;100165.78;5022192;28;45376;-59